Terminal Aerodrome Forecast
Issued by NWS

Home | Current Version | Previous Version | Text Only | Print | Product List | Glossary On
Versions: 1 2 3 4 5 6 7 8 9 10 11 12 13
000
FTAK31 PAFA 231738
TAFABT
TAF
PABT 231738Z 2318/2418 19005KT P6SM VCSH FEW014 SCT070 OVC110
     FM232100 23006KT 6SM -SHRA BR SCT025 OVC050
     FM240700 VRB03KT P6SM FEW025 SCT050 BKN100=

USA.gov is the U.S. government's official web portal to all federal, state and local government web resources and services.